createdAt,value
2017-07-03T00:02:07.672Z,83.73
2017-07-03T00:04:36.271Z,76.43
2017-07-03T00:07:05.179Z,77.10
2017-07-03T00:09:33.787Z,87.00
2017-07-03T00:12:03.127Z,71.20
2017-07-03T00:14:31.979Z,74.17
2017-07-03T00:17:01.323Z,74.40
2017-07-03T00:19:30.072Z,70.03
2017-07-03T00:21:59.455Z,76.53
2017-07-03T00:24:28.059Z,77.03
2017-07-03T00:26:57.368Z,69.70
2017-07-03T00:29:26.671Z,73.40
2017-07-03T00:31:55.248Z,67.23
2017-07-03T00:34:23.447Z,71.30
2017-07-03T00:36:52.088Z,73.90
2017-07-03T00:39:20.243Z,74.03
2017-07-03T00:41:49.155Z,70.67
2017-07-03T00:44:17.781Z,67.43
2017-07-03T00:46:46.448Z,66.37
2017-07-03T00:49:15.804Z,65.17
2017-07-03T00:51:44.538Z,79.60
2017-07-03T00:54:13.738Z,67.93
2017-07-03T00:56:43.285Z,71.57
2017-07-03T00:59:11.952Z,71.70
2017-07-03T01:01:40.663Z,75.20
2017-07-03T01:04:09.314Z,75.20
2017-07-03T01:06:38.796Z,73.23
2017-07-03T01:09:07.500Z,74.27
2017-07-03T01:11:36.843Z,77.63
2017-07-03T01:14:05.590Z,76.67
2017-07-03T01:16:34.835Z,79.10
2017-07-03T01:19:03.383Z,78.70
2017-07-03T01:21:32.863Z,79.47
2017-07-03T01:24:01.488Z,86.10
2017-07-03T01:26:30.240Z,84.03
2017-07-03T01:28:59.231Z,81.63
2017-07-03T01:31:27.731Z,85.57
2017-07-03T01:33:57.324Z,82.63
2017-07-03T01:36:26.035Z,77.33
2017-07-03T01:38:55.516Z,84.40
2017-07-03T01:41:24.515Z,85.67
2017-07-03T01:43:53.236Z,79.60
2017-07-03T01:46:21.808Z,82.33
2017-07-03T01:48:51.002Z,81.27
2017-07-03T01:51:20.419Z,80.00
2017-07-03T01:53:49.947Z,76.53
2017-07-03T01:56:18.087Z,82.27
2017-07-03T01:58:47.403Z,74.43
2017-07-03T02:01:15.615Z,78.77
2017-07-03T02:03:44.595Z,75.27
2017-07-03T02:06:12.915Z,78.77
2017-07-03T02:08:41.531Z,78.00
2017-07-03T02:11:10.927Z,78.07
2017-07-03T02:13:40.623Z,74.40
2017-07-03T02:16:09.381Z,83.27
2017-07-03T02:18:37.960Z,74.37
2017-07-03T02:21:07.057Z,75.53
2017-07-03T02:23:35.599Z,74.03
2017-07-03T02:26:05.102Z,69.40
2017-07-03T02:28:34.848Z,71.40
2017-07-03T02:31:03.395Z,71.47
2017-07-03T02:33:31.479Z,72.77
2017-07-03T02:36:01.080Z,72.13
2017-07-03T02:38:30.375Z,71.93
2017-07-03T02:40:58.505Z,76.87
2017-07-03T02:43:27.530Z,73.13
2017-07-03T02:45:56.102Z,76.70
2017-07-03T02:48:24.760Z,72.80
2017-07-03T02:50:53.611Z,69.27
2017-07-03T02:53:21.779Z,65.70
2017-07-03T02:55:51.215Z,65.07
2017-07-03T02:58:20.219Z,68.60
2017-07-03T03:00:48.771Z,70.43
2017-07-03T03:03:18.315Z,68.13
2017-07-03T03:05:47.167Z,70.63
2017-07-03T03:08:15.455Z,67.43
2017-07-03T03:10:44.751Z,58.67
2017-07-03T03:13:13.082Z,64.17
2017-07-03T03:15:41.851Z,68.43
2017-07-03T03:18:10.463Z,61.87
2017-07-03T03:20:38.703Z,64.10
2017-07-03T03:23:07.447Z,64.07
2017-07-03T03:25:35.947Z,62.17
2017-07-03T03:28:05.639Z,59.03
2017-07-03T03:30:34.483Z,65.57
2017-07-03T03:33:03.049Z,61.03
2017-07-03T03:35:31.379Z,69.97
2017-07-03T03:38:00.084Z,68.87
2017-07-03T03:40:28.584Z,73.27
2017-07-03T03:42:58.316Z,68.80
2017-07-03T03:45:26.779Z,61.73
2017-07-03T03:47:54.895Z,58.97
2017-07-03T03:50:23.783Z,55.57
2017-07-03T03:52:52.328Z,59.53
2017-07-03T03:55:21.871Z,54.07
2017-07-03T03:57:50.607Z,61.77
2017-07-03T04:00:19.215Z,68.90
2017-07-03T04:02:47.343Z,46.50
2017-07-03T04:05:15.992Z,65.10
2017-07-03T04:07:44.699Z,59.57
2017-07-03T04:10:13.454Z,64.30
2017-07-03T04:12:41.703Z,58.50
2017-07-03T04:15:10.455Z,51.77
2017-07-03T04:17:39.307Z,58.60
2017-07-03T04:20:08.722Z,58.07
2017-07-03T04:22:37.399Z,65.93
2017-07-03T04:25:06.703Z,57.97
2017-07-03T04:27:36.387Z,52.87
2017-07-03T04:30:04.484Z,69.77
2017-07-03T04:32:33.783Z,57.73
2017-07-03T04:35:02.071Z,68.60
2017-07-03T04:37:31.507Z,52.40
2017-07-03T04:40:00.271Z,74.23
2017-07-03T04:42:29.164Z,64.43
2017-07-03T04:44:57.887Z,57.30
2017-07-03T04:47:26.419Z,49.07
2017-07-03T04:49:56.152Z,48.73
2017-07-03T04:52:25.011Z,57.70
2017-07-03T04:54:53.567Z,45.50
2017-07-03T04:57:21.873Z,57.17
2017-07-03T04:59:50.797Z,58.00
2017-07-03T05:02:19.499Z,63.57
2017-07-03T05:04:48.159Z,57.63
2017-07-03T05:07:17.739Z,64.87
2017-07-03T05:09:46.736Z,50.60
2017-07-03T05:12:15.023Z,59.00
2017-07-03T05:14:43.620Z,52.50
2017-07-03T05:17:12.958Z,52.97
2017-07-03T05:19:41.710Z,47.57
2017-07-03T05:22:11.051Z,57.20
2017-07-03T05:24:39.204Z,49.22
2017-07-03T05:27:07.882Z,56.87
2017-07-03T05:29:36.040Z,51.60
2017-07-03T05:32:05.352Z,60.70
2017-07-03T05:34:34.791Z,51.17
2017-07-03T05:37:02.968Z,42.00
2017-07-03T05:39:31.511Z,60.67
2017-07-03T05:42:01.203Z,58.77
2017-07-03T05:44:30.047Z,57.55
2017-07-03T05:46:58.858Z,57.45
2017-07-03T05:49:27.708Z,62.53
2017-07-03T05:51:56.283Z,71.97
2017-07-03T05:54:24.415Z,83.20
2017-07-03T05:56:53.164Z,102.20
2017-07-03T05:59:21.732Z,70.87
2017-07-03T06:01:51.030Z,78.87
2017-07-03T06:04:20.452Z,74.95
2017-07-03T06:06:49.223Z,72.87
2017-07-03T06:09:17.306Z,66.75
2017-07-03T06:11:46.909Z,76.37
2017-07-03T06:14:16.207Z,60.47
2017-07-03T06:16:45.502Z,74.13
2017-07-03T06:19:14.299Z,78.77
2017-07-03T06:21:42.898Z,61.20
2017-07-03T06:24:11.606Z,52.62
2017-07-03T06:26:40.344Z,52.40
2017-07-03T06:29:09.051Z,69.03
2017-07-03T06:31:38.453Z,51.15
2017-07-03T06:34:08.184Z,57.50
2017-07-03T06:36:36.987Z,50.08
2017-07-03T06:39:05.539Z,59.95
2017-07-03T06:41:35.079Z,45.63
2017-07-03T06:44:03.682Z,49.53
2017-07-03T06:46:32.320Z,50.55
2017-07-03T06:49:02.082Z,57.90
2017-07-03T06:51:30.773Z,41.17
2017-07-03T06:54:00.303Z,43.83
2017-07-03T06:56:29.294Z,51.83
2017-07-03T06:58:58.187Z,45.80
2017-07-03T07:01:26.691Z,41.92
2017-07-03T07:03:54.938Z,142.60
2017-07-03T07:06:23.795Z,40.42
2017-07-03T07:08:51.995Z,44.80
2017-07-03T07:11:20.206Z,50.05
2017-07-03T07:13:49.719Z,51.03
2017-07-03T07:16:18.968Z,44.42
2017-07-03T07:18:47.810Z,40.43
2017-07-03T07:21:17.047Z,40.47
2017-07-03T07:23:45.903Z,61.87
2017-07-03T07:26:15.324Z,43.40
2017-07-03T07:28:44.896Z,41.50
2017-07-03T07:31:13.787Z,49.20
2017-07-03T07:33:42.471Z,46.43
2017-07-03T07:36:11.080Z,47.43
2017-07-03T07:38:40.422Z,44.50
2017-07-03T07:41:09.271Z,38.83
2017-07-03T07:43:38.579Z,43.97
2017-07-03T07:46:06.708Z,43.30
2017-07-03T07:48:35.722Z,48.07
2017-07-03T07:51:04.287Z,45.33
2017-07-03T07:53:32.912Z,39.20
2017-07-03T07:56:02.336Z,34.87
2017-07-03T07:58:30.948Z,43.07
2017-07-03T08:00:59.103Z,40.63
2017-07-03T08:03:28.126Z,41.03
2017-07-03T08:05:56.795Z,35.20
2017-07-03T08:08:25.451Z,47.73
2017-07-03T08:10:54.968Z,48.57
2017-07-03T08:13:23.647Z,51.27
2017-07-03T08:15:53.006Z,43.40
2017-07-03T08:18:21.923Z,46.13
2017-07-03T08:20:50.632Z,40.03
2017-07-03T08:23:19.979Z,48.10
2017-07-03T08:25:48.759Z,43.40
2017-07-03T08:28:17.507Z,53.93
2017-07-03T08:30:47.020Z,43.23
2017-07-03T08:33:16.430Z,35.73
2017-07-03T08:35:45.143Z,35.60
2017-07-03T08:38:13.533Z,46.33
2017-07-03T08:40:41.746Z,38.70
2017-07-03T08:43:10.451Z,36.03
2017-07-03T08:45:39.750Z,45.60
2017-07-03T08:48:09.480Z,45.37
2017-07-03T08:50:38.184Z,47.73
2017-07-03T08:53:07.093Z,52.77
2017-07-03T08:55:35.838Z,40.43
2017-07-03T08:58:05.414Z,47.20
2017-07-03T09:00:33.975Z,44.93
2017-07-03T09:03:02.223Z,37.77
2017-07-03T09:05:30.355Z,34.17
2017-07-03T09:07:59.110Z,34.20
2017-07-03T09:10:28.055Z,49.40
2017-07-03T09:12:56.250Z,47.23
2017-07-03T09:15:24.919Z,44.43
2017-07-03T09:17:54.711Z,36.83
2017-07-03T09:20:23.659Z,39.07
2017-07-03T09:22:52.551Z,39.87
2017-07-03T09:25:21.324Z,47.47
2017-07-03T09:27:49.936Z,40.43
2017-07-03T09:30:18.063Z,37.37
2017-07-03T09:32:47.679Z,38.80
2017-07-03T09:35:17.126Z,40.27
2017-07-03T09:37:45.771Z,43.93
2017-07-03T09:40:15.114Z,31.23
2017-07-03T09:42:43.964Z,41.47
2017-07-03T09:45:13.427Z,41.13
2017-07-03T09:47:42.201Z,38.33
2017-07-03T09:50:10.843Z,36.23
2017-07-03T09:52:40.243Z,40.33
2017-07-03T09:55:09.937Z,40.10
2017-07-03T09:57:38.489Z,33.70
2017-07-03T10:00:07.228Z,46.80
2017-07-03T10:02:35.518Z,43.70
2017-07-03T10:05:04.091Z,41.60
2017-07-03T10:07:33.730Z,49.93
2017-07-03T10:10:02.727Z,40.97
2017-07-03T10:12:31.536Z,40.97
2017-07-03T10:15:00.371Z,39.70
2017-07-03T10:17:28.615Z,43.87
2017-07-03T10:19:57.523Z,31.07
2017-07-03T10:22:26.027Z,52.87
2017-07-03T10:24:56.392Z,36.60
2017-07-03T10:27:25.059Z,36.00
2017-07-03T10:29:53.763Z,40.43
2017-07-03T10:32:22.600Z,41.37
2017-07-03T10:34:51.207Z,44.43
2017-07-03T10:37:19.291Z,47.80
2017-07-03T10:39:47.939Z,44.47
2017-07-03T10:42:16.551Z,40.97
2017-07-03T10:44:45.847Z,41.00
2017-07-03T10:47:15.501Z,39.13
2017-07-03T10:49:43.620Z,36.27
2017-07-03T10:52:12.344Z,33.43
2017-07-03T10:54:41.000Z,32.73
2017-07-03T10:57:10.530Z,42.87
2017-07-03T10:59:39.836Z,34.10
2017-07-03T11:02:08.712Z,47.20
2017-07-03T11:04:36.835Z,51.30
2017-07-03T11:07:05.448Z,40.57
2017-07-03T11:09:34.355Z,30.20
2017-07-03T11:12:03.679Z,36.97
2017-07-03T11:14:31.802Z,37.23
2017-07-03T11:17:00.407Z,37.97
2017-07-03T11:19:28.987Z,40.63
2017-07-03T11:21:57.903Z,48.77
2017-07-03T11:24:27.332Z,34.93
2017-07-03T11:26:55.981Z,41.67
2017-07-03T11:29:24.648Z,44.73
2017-07-03T11:31:52.948Z,39.87
2017-07-03T11:34:21.624Z,40.50
2017-07-03T11:36:50.302Z,42.53
2017-07-03T11:39:19.248Z,36.97
2017-07-03T11:41:47.723Z,46.47
2017-07-03T11:44:16.575Z,36.80
2017-07-03T11:46:45.396Z,40.50
2017-07-03T11:49:14.667Z,31.57
2017-07-03T11:51:43.447Z,45.23
2017-07-03T11:54:12.296Z,40.87
2017-07-03T11:56:40.823Z,37.83
2017-07-03T11:59:08.918Z,41.23
2017-07-03T12:01:37.603Z,44.30
2017-07-03T12:04:06.224Z,38.03
2017-07-03T12:06:34.966Z,39.27
2017-07-03T12:09:03.987Z,38.90
2017-07-03T12:11:33.266Z,44.53
2017-07-03T12:14:01.940Z,43.10
2017-07-03T12:16:30.183Z,32.90
2017-07-03T12:18:58.271Z,29.40
2017-07-03T12:21:26.771Z,39.67
2017-07-03T12:23:55.716Z,30.07
2017-07-03T12:26:24.367Z,28.77
2017-07-03T12:28:52.995Z,38.37
2017-07-03T12:31:21.607Z,42.63
2017-07-03T12:33:50.224Z,29.03
2017-07-03T12:36:18.848Z,47.27
2017-07-03T12:38:47.344Z,37.33
2017-07-03T12:41:15.879Z,37.40
2017-07-03T12:43:44.565Z,48.13
2017-07-03T12:46:13.439Z,44.60
2017-07-03T12:48:42.335Z,35.23
2017-07-03T12:51:10.476Z,43.90
2017-07-03T12:53:39.450Z,34.13
2017-07-03T12:56:08.019Z,37.20
2017-07-03T12:58:37.294Z,36.40
2017-07-03T13:01:06.211Z,32.87
2017-07-03T13:03:35.595Z,25.97
2017-07-03T13:06:04.199Z,52.87
2017-07-03T13:08:33.787Z,40.03
2017-07-03T13:11:02.395Z,37.80
2017-07-03T13:13:30.572Z,33.00
2017-07-03T13:16:00.143Z,47.00
2017-07-03T13:18:28.632Z,33.90
2017-07-03T13:20:57.224Z,32.33
2017-07-03T13:23:26.035Z,42.13
2017-07-03T13:25:55.451Z,31.73
2017-07-03T13:28:24.707Z,46.23
2017-07-03T13:30:53.455Z,32.87
2017-07-03T13:33:22.204Z,40.27
2017-07-03T13:35:50.871Z,39.33
2017-07-03T13:38:19.523Z,41.97
2017-07-03T13:40:48.159Z,33.43
2017-07-03T13:43:16.854Z,33.27
2017-07-03T13:45:45.723Z,48.07
2017-07-03T13:48:14.390Z,40.53
2017-07-03T13:50:42.839Z,32.63
2017-07-03T13:53:11.599Z,34.20
2017-07-03T13:55:40.403Z,36.80
2017-07-03T13:58:09.832Z,47.77
2017-07-03T14:00:38.687Z,41.17
2017-07-03T14:03:07.358Z,51.57
2017-07-03T14:05:36.309Z,41.60
2017-07-03T14:08:04.951Z,35.77
2017-07-03T14:10:33.634Z,40.90
2017-07-03T14:13:01.727Z,36.77
2017-07-03T14:15:31.435Z,31.67
2017-07-03T14:18:00.959Z,36.33
2017-07-03T14:20:29.615Z,28.47
2017-07-03T14:22:58.323Z,30.40
2017-07-03T14:25:27.813Z,40.47
2017-07-03T14:27:57.207Z,28.57
2017-07-03T14:30:26.076Z,41.07
2017-07-03T14:32:54.687Z,40.47
2017-07-03T14:35:23.396Z,27.90
2017-07-03T14:37:53.024Z,46.87
2017-07-03T14:40:21.775Z,39.67
2017-07-03T14:42:50.448Z,39.63
2017-07-03T14:45:19.342Z,50.27
2017-07-03T14:47:47.875Z,32.33
2017-07-03T14:50:16.564Z,28.50
2017-07-03T14:52:45.516Z,36.30
2017-07-03T14:55:14.186Z,38.13
2017-07-03T14:57:42.958Z,31.43
2017-07-03T15:00:11.577Z,40.63
2017-07-03T15:02:40.268Z,45.53
2017-07-03T15:05:09.075Z,36.63
2017-07-03T15:07:38.557Z,44.10
2017-07-03T15:10:06.651Z,42.20
2017-07-03T15:12:36.247Z,28.90
2017-07-03T15:15:05.155Z,38.33
2017-07-03T15:17:33.291Z,35.87
2017-07-03T15:20:02.033Z,29.53
2017-07-03T15:22:30.995Z,38.83
2017-07-03T15:24:59.780Z,42.80
2017-07-03T15:27:28.513Z,50.77
2017-07-03T15:29:57.344Z,49.10
2017-07-03T15:32:25.948Z,40.93
2017-07-03T15:34:54.637Z,35.50
2017-07-03T15:37:23.648Z,30.23
2017-07-03T15:39:53.132Z,35.57
2017-07-03T15:42:21.735Z,42.20
2017-07-03T15:44:51.190Z,37.97
2017-07-03T15:47:19.920Z,42.40
2017-07-03T15:49:48.584Z,40.97
2017-07-03T15:52:17.259Z,28.53
2017-07-03T15:54:45.811Z,39.10
2017-07-03T15:57:14.542Z,30.50
2017-07-03T15:59:43.439Z,37.60
2017-07-03T16:02:11.984Z,37.63
2017-07-03T16:04:40.625Z,40.77
2017-07-03T16:07:09.407Z,39.90
2017-07-03T16:09:38.183Z,34.10
2017-07-03T16:12:06.954Z,32.03
2017-07-03T16:14:35.582Z,39.03
2017-07-03T16:17:03.719Z,37.50
2017-07-03T16:19:31.767Z,35.87
2017-07-03T16:22:00.611Z,40.37
2017-07-03T16:24:29.320Z,42.23
2017-07-03T16:26:58.804Z,39.20
2017-07-03T16:29:27.620Z,32.50
2017-07-03T16:31:57.044Z,36.17
2017-07-03T16:34:25.912Z,40.87
2017-07-03T16:36:55.331Z,44.60
2017-07-03T16:39:23.983Z,39.47
2017-07-03T16:41:52.716Z,42.83
2017-07-03T16:44:21.527Z,46.17
2017-07-03T16:46:49.975Z,36.47
2017-07-03T16:49:18.527Z,43.47
2017-07-03T16:51:47.543Z,40.20
2017-07-03T16:54:16.923Z,36.13
2017-07-03T16:56:45.611Z,32.53
2017-07-03T16:59:14.496Z,37.83
2017-07-03T17:01:43.160Z,36.97
2017-07-03T17:04:11.712Z,33.80
2017-07-03T17:06:40.604Z,37.33
2017-07-03T17:09:09.253Z,48.70
2017-07-03T17:11:38.027Z,43.20
2017-07-03T17:14:07.159Z,45.70
2017-07-03T17:16:36.543Z,43.57
2017-07-03T17:19:05.115Z,44.67
2017-07-03T17:21:33.728Z,43.73
2017-07-03T17:24:03.207Z,42.73
2017-07-03T17:26:31.692Z,42.33
2017-07-03T17:29:00.531Z,42.73
2017-07-03T17:31:28.636Z,47.93
2017-07-03T17:33:57.347Z,44.60
2017-07-03T17:36:26.142Z,39.97
2017-07-03T17:38:54.832Z,38.00
2017-07-03T17:41:23.743Z,42.27
2017-07-03T17:43:53.195Z,46.23
2017-07-03T17:46:21.915Z,45.57
2017-07-03T17:48:50.523Z,47.80
2017-07-03T17:51:20.112Z,30.93
2017-07-03T17:53:48.924Z,44.53
2017-07-03T17:56:18.404Z,36.30
2017-07-03T17:58:47.300Z,42.87
2017-07-03T18:01:15.986Z,46.83
2017-07-03T18:03:44.760Z,42.63
2017-07-03T18:06:13.612Z,46.37
2017-07-03T18:08:42.422Z,45.17
2017-07-03T18:11:11.031Z,43.50
2017-07-03T18:13:39.935Z,38.97
2017-07-03T18:16:08.539Z,64.20
2017-07-03T18:18:37.867Z,45.17
2017-07-03T18:21:06.711Z,42.07
2017-07-03T18:23:35.447Z,42.27
2017-07-03T18:26:03.763Z,43.57
2017-07-03T18:28:32.467Z,46.43
2017-07-03T18:31:01.178Z,54.57
2017-07-03T18:33:30.559Z,46.80
2017-07-03T18:35:58.919Z,46.73
2017-07-03T18:38:27.411Z,59.33
2017-07-03T18:40:56.005Z,70.03
2017-07-03T18:43:24.715Z,61.50
2017-07-03T18:45:54.131Z,51.27
2017-07-03T18:48:22.708Z,43.30
2017-07-03T18:50:52.259Z,65.93
2017-07-03T18:53:21.088Z,56.17
2017-07-03T18:55:49.788Z,43.70
2017-07-03T18:58:19.271Z,44.50
2017-07-03T19:00:47.983Z,57.27
2017-07-03T19:03:17.468Z,54.00
2017-07-03T19:05:46.359Z,50.00
2017-07-03T19:08:15.271Z,60.60
2017-07-03T19:10:44.552Z,62.57
2017-07-03T19:13:13.451Z,45.73
2017-07-03T19:15:42.156Z,49.40
2017-07-03T19:18:10.215Z,60.23
2017-07-03T19:20:38.999Z,71.97
2017-07-03T19:23:07.775Z,60.53
2017-07-03T19:25:36.438Z,61.53
2017-07-03T19:28:05.140Z,64.93
2017-07-03T19:30:33.889Z,64.87
2017-07-03T19:33:02.639Z,53.77
2017-07-03T19:35:31.735Z,57.40
2017-07-03T19:38:00.731Z,48.77
2017-07-03T19:40:29.335Z,73.33
2017-07-03T19:42:57.517Z,56.53
2017-07-03T19:45:25.615Z,62.33
2017-07-03T19:47:53.743Z,53.90
2017-07-03T19:50:22.743Z,54.40
2017-07-03T19:52:52.024Z,74.47
2017-07-03T19:55:20.124Z,65.43
2017-07-03T19:57:49.552Z,69.93
2017-07-03T20:00:18.319Z,70.57
2017-07-03T20:02:47.703Z,57.10
2017-07-03T20:05:16.415Z,59.80
2017-07-03T20:07:45.798Z,75.63
2017-07-03T20:10:14.603Z,57.37
2017-07-03T20:12:42.851Z,58.17
2017-07-03T20:15:11.451Z,69.10
2017-07-03T20:17:40.051Z,69.80
2017-07-03T20:20:09.471Z,70.43
2017-07-03T20:22:38.149Z,51.00
2017-07-03T20:25:07.672Z,60.77
2017-07-03T20:27:36.524Z,70.03
2017-07-03T20:30:05.231Z,59.87
2017-07-03T20:32:33.405Z,63.23
2017-07-03T20:35:02.831Z,50.90
2017-07-03T20:37:30.928Z,58.90
2017-07-03T20:39:59.760Z,62.03
2017-07-03T20:42:28.012Z,71.70
2017-07-03T20:44:56.179Z,55.50
2017-07-03T20:47:24.983Z,65.03
2017-07-03T20:49:53.875Z,62.93
2017-07-03T20:52:22.723Z,65.97
2017-07-03T20:54:51.642Z,51.17
2017-07-03T20:57:20.464Z,72.00
2017-07-03T20:59:49.107Z,60.50
2017-07-03T21:02:17.856Z,71.63
2017-07-03T21:04:47.339Z,66.50
2017-07-03T21:07:16.051Z,65.83
2017-07-03T21:09:45.454Z,59.80
2017-07-03T21:12:15.143Z,52.00
2017-07-03T21:14:43.905Z,60.60
2017-07-03T21:17:12.542Z,62.90
2017-07-03T21:19:42.129Z,53.33
2017-07-03T21:22:10.423Z,58.97
2017-07-03T21:24:39.968Z,53.80
2017-07-03T21:27:08.640Z,58.90
2017-07-03T21:29:37.351Z,49.13
2017-07-03T21:32:06.010Z,53.23
2017-07-03T21:34:34.903Z,51.47
2017-07-03T21:37:03.072Z,59.60
2017-07-03T21:39:31.651Z,57.43
2017-07-03T21:42:01.271Z,53.13
2017-07-03T21:44:29.840Z,61.20
2017-07-03T21:46:59.084Z,58.93
2017-07-03T21:49:28.034Z,67.57
2017-07-03T21:51:57.392Z,44.67
2017-07-03T21:54:25.596Z,50.03
2017-07-03T21:56:54.629Z,62.27
2017-07-03T21:59:22.795Z,49.50
2017-07-03T22:01:52.324Z,58.80
2017-07-03T22:04:21.052Z,45.80
2017-07-03T22:06:49.663Z,49.40
2017-07-03T22:09:18.904Z,66.47
2017-07-03T22:11:47.859Z,53.73
2017-07-03T22:14:15.970Z,61.40
2017-07-03T22:16:44.719Z,55.93
2017-07-03T22:19:14.551Z,66.87
2017-07-03T22:21:43.404Z,53.37
2017-07-03T22:24:11.494Z,51.77
2017-07-03T22:26:40.919Z,48.37
2017-07-03T22:29:09.488Z,45.43
2017-07-03T22:31:38.786Z,52.90
2017-07-03T22:34:08.723Z,56.23
2017-07-03T22:36:37.477Z,59.63
2017-07-03T22:39:05.568Z,48.03
2017-07-03T22:41:34.104Z,38.37
2017-07-03T22:44:02.463Z,42.33
2017-07-03T22:46:31.156Z,57.33
2017-07-03T22:49:00.007Z,49.47
2017-07-03T22:51:29.251Z,49.17
2017-07-03T22:53:57.918Z,44.57
2017-07-03T22:56:26.915Z,48.67
2017-07-03T22:58:55.768Z,51.07
2017-07-03T23:01:24.503Z,45.83
2017-07-03T23:03:53.067Z,45.00
2017-07-03T23:06:21.742Z,45.80
2017-07-03T23:08:50.939Z,44.33
2017-07-03T23:11:20.735Z,60.27
2017-07-03T23:13:49.240Z,54.43
2017-07-03T23:16:18.777Z,48.23
2017-07-03T23:18:47.417Z,53.37
2017-07-03T23:21:15.574Z,48.17
2017-07-03T23:23:43.784Z,45.07
2017-07-03T23:26:13.471Z,39.63
2017-07-03T23:28:42.076Z,52.10
2017-07-03T23:31:11.438Z,48.13
2017-07-03T23:33:40.181Z,42.93
2017-07-03T23:36:08.755Z,38.50
2017-07-03T23:38:38.647Z,40.40
2017-07-03T23:41:07.168Z,44.83
2017-07-03T23:56:34.548Z,38.63
2017-07-03T23:59:03.191Z,63.50
